Terminal Aerodrome Forecast
Issued by NWS Amarillo, TX

Home | Current Version | Previous Version | Text Only | Print | Product List | Glossary On
Versions: 1 2 3 4 5 6 7 8 9 10 11 12 13 14 15 16 17 18 19 20
000
FTUS44 KAMA 232300
TAFAMA
TAF
KAMA 232340Z 2400/2424 20026G36KT P6SM FEW250
     FM240300 23016G26KT P6SM FEW250
     FM240600 33015G25KT P6SM SCT100
     FM241600 34016KT P6SM FEW250=

USA.gov is the U.S. government's official web portal to all federal, state and local government web resources and services.